Time;durP1;ratioP1;P1;durP2;ratioP2;P2;SDS_P1;SDS_P2;PMS_P1;PMS_P2;Temp;Humidity;BMP_temperature;BMP_pressure;BME280_temperature;BME280_humidity;BME280_pressure;Samples;Min_cycle;Max_cycle;Signal;HPM_P1;HPM_P2
2023/08/01 00:00:29;;;;;;;4.72;1.80;;;;;;;20.39;75.69;99987.56;5031564;28;20570;-47
2023/08/01 00:02:54;;;;;;;4.75;1.90;;;;;;;20.25;76.35;99990.72;5032024;28;20041;-46
2023/08/01 00:05:19;;;;;;;6.13;1.92;;;;;;;20.34;76.00;99986.88;5032582;28;20033;-44
2023/08/01 00:07:45;;;;;;;7.05;2.30;;;;;;;20.24;76.35;99986.38;5032140;28;20021;-45
2023/08/01 00:10:10;;;;;;;8.13;2.25;;;;;;;20.08;76.42;99982.59;5032688;28;20075;-49
2023/08/01 00:12:35;;;;;;;4.88;2.10;;;;;;;20.01;77.15;99978.47;5031016;28;20048;-47
2023/08/01 00:15:01;;;;;;;7.45;2.35;;;;;;;20.29;76.13;99975.59;5030786;28;20128;-43
2023/08/01 00:17:27;;;;;;;11.85;2.10;;;;;;;20.20;75.74;99970.66;5031913;28;20141;-45
2023/08/01 00:19:52;;;;;;;8.25;2.30;;;;;;;20.26;75.50;99967.75;5032042;28;20034;-43
2023/08/01 00:22:18;;;;;;;8.57;2.50;;;;;;;20.17;75.81;99966.38;5031453;28;20045;-44
2023/08/01 00:24:43;;;;;;;8.77;2.30;;;;;;;20.19;75.72;99956.56;5031522;28;20034;-46
2023/08/01 00:27:10;;;;;;;6.15;2.20;;;;;;;20.27;74.95;99958.91;5032324;28;20036;-45
2023/08/01 00:29:35;;;;;;;6.70;2.15;;;;;;;20.16;74.99;99947.91;5031609;28;20038;-44
2023/08/01 00:32:01;;;;;;;7.00;2.42;;;;;;;20.09;75.91;99938.47;5031497;28;20041;-48
2023/08/01 00:34:26;;;;;;;6.03;2.40;;;;;;;19.91;76.47;99945.38;5031233;28;20541;-47
2023/08/01 00:36:51;;;;;;;7.00;2.67;;;;;;;20.04;76.76;99941.31;5031897;28;20036;-50
2023/08/01 00:39:17;;;;;;;6.55;2.42;;;;;;;19.84;77.01;99938.59;5031763;28;20029;-44
2023/08/01 00:41:42;;;;;;;10.15;2.42;;;;;;;19.98;77.18;99933.63;5030879;28;20033;-44
2023/08/01 00:44:08;;;;;;;8.43;2.75;;;;;;;19.97;76.96;99938.97;5031459;28;20128;-43
2023/08/01 00:46:34;;;;;;;7.88;2.50;;;;;;;20.23;76.19;99938.78;5031444;28;20121;-47
2023/08/01 00:49:00;;;;;;;7.80;2.65;;;;;;;19.82;76.89;99935.16;5031589;28;20520;-47
2023/08/01 00:51:26;;;;;;;7.50;2.60;;;;;;;20.27;75.61;99935.06;5030426;28;20535;-44
2023/08/01 00:53:52;;;;;;;8.63;2.38;;;;;;;20.19;75.00;99934.53;5031306;28;20053;-46
2023/08/01 00:56:18;;;;;;;8.07;2.50;;;;;;;20.19;75.23;99930.09;5031449;28;20643;-44
2023/08/01 00:58:43;;;;;;;7.53;2.55;;;;;;;20.22;75.74;99929.13;5030802;28;20458;-44
2023/08/01 01:01:08;;;;;;;7.38;2.53;;;;;;;20.35;75.31;99929.50;5030887;28;20120;-49
2023/08/01 01:03:34;;;;;;;9.85;2.40;;;;;;;20.24;75.67;99925.50;5030264;28;20065;-46
2023/08/01 01:06:17;;;;;;;9.10;2.60;;;;;;;20.24;75.77;99922.84;5029049;28;20117;-43
2023/08/01 01:08:43;;;;;;;5.60;2.30;;;;;;;20.55;74.84;99922.44;5030683;28;20693;-45
2023/08/01 01:11:08;;;;;;;6.20;1.92;;;;;;;20.50;75.25;99926.22;5031246;28;20039;-43
2023/08/01 01:13:34;;;;;;;7.30;2.20;;;;;;;20.19;76.76;99921.28;5030021;28;20037;-50
2023/08/01 01:15:59;;;;;;;7.30;2.25;;;;;;;20.46;76.02;99928.13;5030961;28;20051;-46
2023/08/01 01:18:25;;;;;;;8.32;2.35;;;;;;;20.36;76.67;99925.94;5030526;28;20491;-47
2023/08/01 01:20:51;;;;;;;9.48;2.72;;;;;;;20.44;76.38;99919.38;5030907;28;20124;-43
2023/08/01 01:23:17;;;;;;;7.03;2.40;;;;;;;20.39;76.32;99917.84;5030511;28;20041;-48
2023/08/01 01:25:45;;;;;;;9.23;2.42;;;;;;;20.20;76.47;99925.66;5030502;28;20472;-46
2023/08/01 01:28:11;;;;;;;6.70;2.15;;;;;;;19.96;77.83;99922.22;5030412;28;20116;-43
2023/08/01 01:30:37;;;;;;;6.68;2.70;;;;;;;19.87;77.35;99921.75;5030194;28;20112;-46
2023/08/01 01:33:03;;;;;;;4.22;1.98;;;;;;;19.99;77.53;99915.97;5030308;28;20567;-47
2023/08/01 01:35:29;;;;;;;6.53;2.13;;;;;;;20.01;77.46;99909.66;5030257;28;20037;-43
2023/08/01 01:37:54;;;;;;;8.27;2.10;;;;;;;20.44;75.73;99921.16;5030771;28;20033;-47
2023/08/01 01:40:20;;;;;;;8.57;2.20;;;;;;;20.14;75.92;99913.53;5030712;28;20545;-45
2023/08/01 01:42:45;;;;;;;8.65;2.00;;;;;;;20.51;75.64;99914.69;5029823;28;20088;-43
2023/08/01 01:45:11;;;;;;;8.50;2.10;;;;;;;20.45;75.56;99915.81;5030502;28;20029;-46
2023/08/01 01:47:36;;;;;;;5.13;2.00;;;;;;;20.41;75.87;99913.38;5030105;28;20034;-43
2023/08/01 01:50:01;;;;;;;8.88;2.40;;;;;;;20.24;76.69;99908.75;5030575;28;20090;-43
2023/08/01 01:52:27;;;;;;;6.45;2.08;;;;;;;20.31;76.54;99907.53;5029648;28;20037;-47
2023/08/01 01:54:52;;;;;;;7.60;2.20;;;;;;;20.16;76.17;99910.84;5030333;28;20056;-45
2023/08/01 01:57:17;;;;;;;8.25;2.35;;;;;;;20.54;74.80;99909.28;5030465;28;20029;-46
2023/08/01 01:59:43;;;;;;;6.07;2.60;;;;;;;20.54;74.63;99909.28;5028470;28;20042;-45
2023/08/01 02:02:08;;;;;;;7.45;2.25;;;;;;;20.51;75.34;99914.69;5029834;28;20040;-44
2023/08/01 02:04:33;;;;;;;8.52;2.80;;;;;;;20.64;74.71;99908.81;5029610;28;20048;-46
2023/08/01 02:06:59;;;;;;;5.68;2.20;;;;;;;20.37;75.64;99907.31;5030347;28;20033;-44
2023/08/01 02:09:24;;;;;;;9.02;2.10;;;;;;;20.60;75.16;99901.06;5029718;28;20047;-46
2023/08/01 02:11:49;;;;;;;7.40;2.53;;;;;;;20.64;75.12;99902.66;5028239;28;20057;-44
2023/08/01 02:14:15;;;;;;;8.57;2.20;;;;;;;20.76;74.37;99899.47;5029802;28;20071;-44
2023/08/01 02:16:41;;;;;;;6.20;2.17;;;;;;;20.53;74.91;99899.63;5029502;28;20092;-44
2023/08/01 02:19:06;;;;;;;7.07;2.45;;;;;;;20.55;75.53;99900.41;5030027;28;20087;-49
2023/08/01 02:21:31;;;;;;;8.73;2.72;;;;;;;20.54;75.74;99904.84;5028838;28;20044;-42
2023/08/01 02:23:57;;;;;;;8.18;2.95;;;;;;;20.60;75.50;99901.94;5029810;28;20037;-45
2023/08/01 02:26:23;;;;;;;10.73;3.03;;;;;;;20.71;75.50;99897.97;5028697;28;20083;-43
2023/08/01 02:28:49;;;;;;;7.90;2.60;;;;;;;20.38;77.74;99889.66;5029414;28;20128;-46
2023/08/01 02:31:15;;;;;;;9.27;2.92;;;;;;;20.12;77.89;99882.78;5029181;28;20212;-43
2023/08/01 02:33:40;;;;;;;11.93;2.85;;;;;;;20.09;77.90;99891.72;5029365;28;20202;-43
2023/08/01 02:36:06;;;;;;;10.43;2.58;;;;;;;20.06;78.67;99893.63;5029852;28;20441;-45
2023/08/01 02:38:31;;;;;;;8.98;2.67;;;;;;;20.10;78.22;99893.44;5028607;28;20041;-45
2023/08/01 02:40:56;;;;;;;11.05;2.80;;;;;;;19.97;79.18;99899.28;5028190;28;20467;-47
2023/08/01 02:43:22;;;;;;;9.20;2.90;;;;;;;19.88;79.41;99897.88;5029243;28;20047;-48
2023/08/01 02:45:47;;;;;;;8.68;2.63;;;;;;;19.74;79.94;99903.72;5028936;28;20547;-43
2023/08/01 02:48:12;;;;;;;12.05;3.00;;;;;;;20.02;78.63;99902.59;5028548;28;20037;-46
2023/08/01 02:50:38;;;;;;;12.10;2.95;;;;;;;19.74;80.17;99894.91;5028960;28;20061;-48
2023/08/01 02:53:04;;;;;;;11.32;3.42;;;;;;;19.84;79.65;99902.41;5029160;28;20026;-46
2023/08/01 02:55:30;;;;;;;11.48;3.10;;;;;;;19.83;79.45;99902.47;5029477;28;20136;-44
2023/08/01 02:57:55;;;;;;;9.98;3.25;;;;;;;19.94;78.98;99900.28;5030633;28;20448;-43
2023/08/01 03:00:20;;;;;;;12.27;3.20;;;;;;;19.87;79.20;99901.44;5029788;28;20053;-48
2023/08/01 03:02:46;;;;;;;11.50;3.00;;;;;;;19.88;79.03;99904.97;5028524;28;20037;-43
2023/08/01 03:05:11;;;;;;;11.82;3.40;;;;;;;19.74;79.45;99905.50;5027994;28;20033;-45
2023/08/01 03:07:36;;;;;;;10.18;3.05;;;;;;;19.71;79.47;99901.19;5029343;28;20038;-45
2023/08/01 03:10:02;;;;;;;10.10;2.97;;;;;;;19.89;79.05;99896.06;5029511;28;20061;-44
2023/08/01 03:12:27;;;;;;;10.15;3.40;;;;;;;19.75;79.42;99908.09;5028732;28;20749;-46
2023/08/01 03:14:53;;;;;;;10.57;3.17;;;;;;;19.83;79.50;99895.41;5029538;28;20116;-47
2023/08/01 03:17:18;;;;;;;8.20;2.78;;;;;;;19.88;79.42;99897.03;5029345;28;20112;-43
2023/08/01 03:19:43;;;;;;;12.23;3.40;;;;;;;19.77;79.08;99900.94;5028839;28;20430;-43
2023/08/01 03:22:10;;;;;;;10.48;3.13;;;;;;;19.94;78.78;99902.94;5029005;28;20075;-45
2023/08/01 03:24:35;;;;;;;13.05;3.33;;;;;;;20.24;77.56;99909.63;5028765;28;20033;-43
2023/08/01 03:27:01;;;;;;;11.65;3.15;;;;;;;19.95;78.18;99917.00;5029560;28;20071;-45
2023/08/01 03:29:26;;;;;;;10.23;3.13;;;;;;;19.97;78.77;99912.50;5028795;28;20033;-45
2023/08/01 03:31:52;;;;;;;8.38;2.97;;;;;;;20.25;77.62;99915.75;5028738;28;20504;-44
2023/08/01 03:34:17;;;;;;;12.25;3.00;;;;;;;19.92;77.98;99910.06;5029098;28;20033;-45
2023/08/01 03:36:43;;;;;;;11.80;3.25;;;;;;;19.97;78.55;99920.44;5028613;28;20040;-45
2023/08/01 03:39:09;;;;;;;12.27;3.30;;;;;;;19.79;79.44;99917.63;5029068;28;20040;-49
2023/08/01 03:41:36;;;;;;;9.07;2.75;;;;;;;20.08;77.99;99911.16;5028061;28;20088;-49
2023/08/01 03:44:02;;;;;;;8.90;2.88;;;;;;;20.13;77.84;99919.75;5029040;28;20029;-43
2023/08/01 03:46:27;;;;;;;11.27;3.13;;;;;;;20.32;76.78;99924.28;5027454;28;20566;-45
2023/08/01 03:48:52;;;;;;;13.75;3.00;;;;;;;20.31;77.49;99923.44;5028898;28;20065;-47
2023/08/01 03:51:19;;;;;;;12.43;2.55;;;;;;;20.26;77.40;99920.13;5032058;28;20060;-43
2023/08/01 03:53:45;;;;;;;13.20;2.95;;;;;;;20.15;78.33;99917.06;5032038;28;20041;-43
2023/08/01 03:56:10;;;;;;;8.82;2.72;;;;;;;20.27;77.59;99925.34;5032686;28;20032;-44
2023/08/01 03:58:36;;;;;;;9.13;2.92;;;;;;;19.85;78.58;99920.03;5032121;28;20034;-45
2023/08/01 04:01:01;;;;;;;9.10;2.72;;;;;;;20.11;78.22;99921.63;5032315;28;20120;-47
2023/08/01 04:03:26;;;;;;;9.02;2.60;;;;;;;20.28;77.74;99915.63;5031369;28;20034;-46
2023/08/01 04:05:52;;;;;;;9.52;2.60;;;;;;;20.23;77.24;99917.63;5032338;28;20028;-43
2023/08/01 04:08:17;;;;;;;7.28;2.50;;;;;;;20.11;78.24;99918.97;5032346;28;20029;-46
2023/08/01 04:10:42;;;;;;;7.68;2.60;;;;;;;19.84;79.09;99923.59;5031942;28;20063;-43
2023/08/01 04:13:08;;;;;;;8.07;2.45;;;;;;;19.98;78.63;99915.09;5031764;28;20029;-50
2023/08/01 04:15:33;;;;;;;9.65;2.50;;;;;;;19.97;78.01;99916.03;5031703;28;20037;-44
2023/08/01 04:17:58;;;;;;;8.23;2.40;;;;;;;19.88;78.44;99913.75;5032453;28;20044;-44
2023/08/01 04:20:24;;;;;;;9.65;2.95;;;;;;;20.13;77.58;99910.94;5032040;28;20030;-45
2023/08/01 04:22:49;;;;;;;5.20;2.17;;;;;;;20.11;77.45;99920.75;5032069;28;20029;-46
2023/08/01 04:25:14;;;;;;;10.32;2.30;;;;;;;19.95;77.34;99919.63;5033228;28;20045;-45
2023/08/01 04:27:40;;;;;;;6.65;2.40;;;;;;;20.10;76.91;99919.91;5033092;28;20037;-43
2023/08/01 04:30:06;;;;;;;8.65;2.35;;;;;;;19.55;77.93;99917.72;5032285;28;20031;-47
2023/08/01 04:32:31;;;;;;;10.55;2.63;;;;;;;20.00;76.67;99920.34;5031154;28;20042;-46
2023/08/01 04:34:56;;;;;;;6.00;2.10;;;;;;;19.85;76.65;99921.81;5032774;28;20030;-44
2023/08/01 04:37:23;;;;;;;7.00;2.03;;;;;;;19.80;76.11;99921.13;5033530;28;20517;-42
2023/08/01 04:39:48;;;;;;;9.75;2.30;;;;;;;20.00;76.21;99912.41;5032640;28;20041;-43
2023/08/01 04:42:14;;;;;;;6.88;2.08;;;;;;;19.84;76.11;99920.94;5031747;28;20044;-44
2023/08/01 04:44:39;;;;;;;6.50;2.10;;;;;;;19.99;75.91;99921.25;5031317;28;20437;-46
2023/08/01 04:47:05;;;;;;;6.72;2.00;;;;;;;19.82;76.12;99924.59;5031951;28;20041;-43
2023/08/01 04:49:30;;;;;;;6.78;2.00;;;;;;;19.91;76.19;99920.69;5031313;28;20034;-47
2023/08/01 04:51:56;;;;;;;6.30;1.95;;;;;;;20.02;75.22;99921.97;5031974;28;20471;-47
2023/08/01 04:54:21;;;;;;;7.88;2.05;;;;;;;20.02;75.68;99929.91;5032065;28;20045;-44
2023/08/01 04:56:46;;;;;;;7.93;2.10;;;;;;;20.08;75.52;99927.03;5031083;28;20667;-43
2023/08/01 04:59:11;;;;;;;8.27;2.20;;;;;;;19.70;76.13;99928.53;5031487;28;20116;-43
2023/08/01 05:01:37;;;;;;;7.13;2.10;;;;;;;19.67;76.32;99935.75;5030474;28;20072;-44
2023/08/01 05:04:02;;;;;;;6.65;2.25;;;;;;;19.99;75.21;99921.25;5031165;28;20041;-44
2023/08/01 05:06:28;;;;;;;5.47;2.30;;;;;;;19.81;76.05;99928.16;5032075;28;20041;-44
2023/08/01 05:08:53;;;;;;;11.18;2.30;;;;;;;20.10;75.07;99926.97;5032191;28;20064;-44
2023/08/01 05:11:19;;;;;;;8.63;2.20;;;;;;;19.84;75.02;99925.38;5031996;28;20423;-45
2023/08/01 05:13:44;;;;;;;7.95;2.10;;;;;;;20.25;74.33;99927.19;5031399;28;20076;-44
2023/08/01 05:16:09;;;;;;;7.35;2.20;;;;;;;20.28;73.21;99926.22;5031382;28;20427;-46
2023/08/01 05:18:35;;;;;;;9.40;2.40;;;;;;;19.68;74.95;99921.59;5030730;28;20037;-47
2023/08/01 05:21:00;;;;;;;6.60;2.10;;;;;;;20.04;73.66;99928.09;5033286;28;20025;-43
2023/08/01 05:23:25;;;;;;;6.20;2.13;;;;;;;19.71;75.36;99934.69;5032559;28;20044;-44
2023/08/01 05:25:51;;;;;;;6.20;2.20;;;;;;;20.30;72.95;99924.38;5033006;28;20043;-44
2023/08/01 05:28:16;;;;;;;7.18;2.20;;;;;;;20.19;72.96;99924.81;5033063;28;20041;-43
2023/08/01 05:30:41;;;;;;;8.00;2.50;;;;;;;19.94;73.85;99924.09;5032031;28;20046;-47
2023/08/01 05:33:06;;;;;;;9.18;2.25;;;;;;;19.89;73.64;99926.03;5033220;28;20550;-45
2023/08/01 05:35:32;;;;;;;7.35;1.90;;;;;;;20.67;71.77;99936.97;5032349;28;20041;-49
2023/08/01 05:37:57;;;;;;;9.23;2.30;;;;;;;20.91;69.92;99932.41;5031016;28;20108;-45
2023/08/01 05:40:23;;;;;;;8.63;3.60;;;;;;;21.14;70.01;99939.31;5030760;28;20125;-43
2023/08/01 05:42:48;;;;;;;18.33;12.25;;;;;;;21.39;68.58;99939.97;5029733;28;20037;-48
2023/08/01 05:45:13;;;;;;;8.65;2.80;;;;;;;21.30;67.81;99943.03;5030374;28;20041;-43
2023/08/01 05:47:40;;;;;;;6.82;2.50;;;;;;;22.01;68.66;99937.06;5030299;28;20033;-45
2023/08/01 05:50:06;;;;;;;6.60;2.50;;;;;;;22.48;64.96;99939.16;5030388;28;20040;-46
2023/08/01 05:52:31;;;;;;;8.15;2.50;;;;;;;23.33;63.52;99940.91;5029388;28;20060;-46
2023/08/01 05:54:57;;;;;;;6.40;2.30;;;;;;;23.12;61.25;99943.81;5030338;28;20480;-45
2023/08/01 05:57:22;;;;;;;9.07;2.20;;;;;;;23.10;63.14;99940.41;5030474;28;20044;-44
2023/08/01 05:59:47;;;;;;;6.45;2.35;;;;;;;22.74;62.54;99940.53;5029783;28;20029;-45
2023/08/01 06:02:12;;;;;;;10.85;2.97;;;;;;;22.91;62.84;99949.34;5029842;28;20488;-50
2023/08/01 06:04:38;;;;;;;8.05;2.70;;;;;;;22.38;63.52;99954.69;5029714;28;20060;-48
2023/08/01 06:07:04;;;;;;;7.40;2.58;;;;;;;22.00;66.26;99953.03;5028992;28;20033;-43
2023/08/01 06:09:30;;;;;;;7.18;2.30;;;;;;;21.52;66.72;99951.75;5029544;28;20045;-45
2023/08/01 06:11:55;;;;;;;8.48;2.65;;;;;;;21.54;67.90;99944.56;5029455;28;20144;-46
2023/08/01 06:14:20;;;;;;;8.18;2.67;;;;;;;21.37;67.89;99945.34;5029840;28;20115;-42
2023/08/01 06:16:46;;;;;;;9.27;2.83;;;;;;;21.82;66.27;99950.31;5029469;28;20484;-46
2023/08/01 06:19:11;;;;;;;7.85;2.53;;;;;;;22.10;66.09;99959.63;5030042;28;20040;-45
2023/08/01 06:21:36;;;;;;;9.80;2.70;;;;;;;21.85;67.25;99957.25;5028940;28;20077;-45
2023/08/01 06:24:02;;;;;;;11.57;2.90;;;;;;;21.81;67.88;99964.50;5029639;28;20091;-48
2023/08/01 06:26:28;;;;;;;8.25;2.55;;;;;;;22.47;66.47;99966.66;5029495;28;20041;-43
2023/08/01 06:28:53;;;;;;;13.70;3.20;;;;;;;21.75;70.13;99974.53;5029731;28;20436;-44
2023/08/01 06:31:20;;;;;;;11.38;3.30;;;;;;;21.42;70.52;99963.69;5029129;28;20032;-46
2023/08/01 06:33:45;;;;;;;8.13;2.75;;;;;;;21.21;72.49;99970.81;5029167;28;20072;-47
2023/08/01 06:36:10;;;;;;;10.30;2.90;;;;;;;20.64;74.17;99979.47;5029648;28;20041;-47
2023/08/01 06:38:36;;;;;;;8.50;2.70;;;;;;;20.42;75.46;99976.00;5029332;28;20033;-43
2023/08/01 06:41:01;;;;;;;9.10;2.60;;;;;;;20.04;76.14;99975.72;5028113;28;20447;-47
2023/08/01 06:43:26;;;;;;;6.75;2.42;;;;;;;20.15;76.27;99981.44;5028891;28;20045;-44
2023/08/01 06:45:52;;;;;;;11.52;2.60;;;;;;;19.67;77.68;99981.56;5029367;28;20034;-45
2023/08/01 06:48:17;;;;;;;7.53;2.45;;;;;;;20.04;76.48;99986.28;5029838;28;20044;-47
2023/08/01 06:50:43;;;;;;;9.45;2.90;;;;;;;20.98;74.72;99985.03;5029000;28;20049;-46
2023/08/01 06:53:08;;;;;;;8.88;2.47;;;;;;;21.85;71.78;99978.47;5028927;28;20113;-48
2023/08/01 06:55:34;;;;;;;7.88;2.60;;;;;;;21.77;71.10;99985.94;5029134;28;20163;-49
2023/08/01 06:57:59;;;;;;;9.95;2.40;;;;;;;21.65;70.61;99990.00;5029711;28;20507;-43
2023/08/01 07:00:24;;;;;;;7.00;2.20;;;;;;;22.80;65.21;99991.56;5028875;28;20115;-45
2023/08/01 07:02:50;;;;;;;5.43;2.00;;;;;;;22.81;65.20;99987.94;5029082;28;20094;-45
2023/08/01 07:05:15;;;;;;;6.50;2.38;;;;;;;22.79;64.20;99992.50;5029325;28;20030;-44
2023/08/01 07:07:40;;;;;;;9.07;2.35;;;;;;;23.14;64.80;99995.13;5028990;28;20711;-45
2023/08/01 07:10:07;;;;;;;6.63;2.28;;;;;;;24.48;60.47;100000.16;5029567;28;20121;-49
2023/08/01 07:12:32;;;;;;;7.93;2.40;;;;;;;24.00;58.21;100002.91;5028607;28;20042;-46
2023/08/01 07:14:57;;;;;;;7.68;2.55;;;;;;;22.67;62.99;99991.28;5029612;28;20032;-45
2023/08/01 07:17:22;;;;;;;10.18;2.40;;;;;;;22.49;65.68;99997.53;5029791;28;20046;-45
2023/08/01 07:19:48;;;;;;;6.35;2.33;;;;;;;22.56;65.22;99998.09;5029309;28;20038;-45
2023/08/01 07:22:14;;;;;;;10.50;2.90;;;;;;;22.16;65.01;100013.28;5029457;28;20038;-46
2023/08/01 07:24:39;;;;;;;8.07;2.60;;;;;;;22.36;66.21;100008.81;5030058;28;20496;-44
2023/08/01 07:27:05;;;;;;;9.95;2.70;;;;;;;22.25;65.78;100006.69;5033409;28;20063;-46
2023/08/01 07:29:30;;;;;;;10.82;2.80;;;;;;;21.67;66.48;100005.84;5032789;28;20037;-45
2023/08/01 07:31:55;;;;;;;6.93;2.70;;;;;;;22.13;66.47;100016.09;5032642;28;20033;-44
2023/08/01 07:34:21;;;;;;;7.45;2.65;;;;;;;22.58;65.61;100013.00;5033110;28;20073;-42
2023/08/01 07:36:48;;;;;;;8.65;2.70;;;;;;;22.53;63.13;100009.69;5034175;28;20037;-47
2023/08/01 07:39:14;;;;;;;10.82;2.55;;;;;;;23.70;61.68;100005.47;5033458;28;20049;-44
2023/08/01 07:41:39;;;;;;;10.98;2.75;;;;;;;22.68;62.55;100002.78;5032378;28;20083;-45
2023/08/01 07:44:05;;;;;;;6.80;2.28;;;;;;;22.56;64.23;100008.72;5033307;28;20073;-43
2023/08/01 07:46:32;;;;;;;8.60;2.60;;;;;;;22.82;62.97;100016.25;5032911;28;20034;-46
2023/08/01 07:48:57;;;;;;;14.77;2.75;;;;;;;22.20;63.84;100017.50;5033437;28;20117;-44
2023/08/01 07:51:22;;;;;;;6.93;2.60;;;;;;;22.44;63.85;100011.97;5032487;28;20563;-45
2023/08/01 07:53:48;;;;;;;11.38;2.80;;;;;;;21.31;65.38;100019.84;5032533;28;20481;-46
2023/08/01 07:56:13;;;;;;;10.60;2.38;;;;;;;21.52;64.25;100025.13;5023735;28;20124;-44
2023/08/01 07:58:38;;;;;;;9.70;2.47;;;;;;;21.67;64.44;100022.63;5005109;28;20030;-48
2023/08/01 08:01:05;;;;;;;8.60;2.58;;;;;;;21.69;65.95;100035.84;5028328;28;20107;-45
2023/08/01 08:03:31;;;;;;;8.45;2.67;;;;;;;21.30;67.28;100041.13;5023068;28;20045;-47
2023/08/01 08:05:56;;;;;;;8.48;2.70;;;;;;;21.52;66.26;100027.78;5011975;28;20029;-43
2023/08/01 08:08:21;;;;;;;9.07;2.83;;;;;;;21.74;65.53;100034.69;5030716;28;20124;-46
2023/08/01 08:10:47;;;;;;;10.52;3.00;;;;;;;21.27;69.54;100033.31;5030909;28;20033;-48
2023/08/01 08:13:12;;;;;;;13.15;3.10;;;;;;;20.74;71.49;100040.88;5031231;28;20053;-42
2023/08/01 08:15:38;;;;;;;8.88;2.70;;;;;;;20.90;71.06;100036.66;5031417;28;20484;-44
2023/08/01 08:18:04;;;;;;;10.55;2.70;;;;;;;21.14;72.12;100042.69;5005378;28;20033;-43
2023/08/01 08:20:31;;;;;;;14.55;2.63;;;;;;;21.16;69.98;100048.81;5011310;28;20038;-45
2023/08/01 08:22:56;;;;;;;10.07;2.70;;;;;;;21.35;69.56;100047.94;5011496;28;20034;-43
2023/08/01 08:25:21;;;;;;;11.88;2.97;;;;;;;21.36;69.25;100062.94;5026393;28;20415;-43
2023/08/01 08:27:49;;;;;;;10.20;3.00;;;;;;;21.58;66.77;100059.34;5031093;28;20045;-43
2023/08/01 08:30:14;;;;;;;11.27;2.83;;;;;;;20.75;68.87;100047.88;5032344;28;20491;-44
2023/08/01 08:32:40;;;;;;;9.52;2.90;;;;;;;21.03;68.57;100054.63;5013921;28;20034;-43
2023/08/01 08:35:05;;;;;;;10.48;3.05;;;;;;;21.40;68.21;100045.97;5020123;28;20030;-45
2023/08/01 08:37:31;;;;;;;9.55;2.90;;;;;;;21.44;69.30;100058.16;5030256;28;20037;-43
2023/08/01 08:39:56;;;;;;;8.75;2.80;;;;;;;21.17;69.62;100061.13;5012395;28;20030;-47
2023/08/01 08:42:21;;;;;;;10.05;3.10;;;;;;;21.64;68.52;100054.63;5022544;28;20080;-44
2023/08/01 08:44:50;;;;;;;7.45;2.40;;;;;;;21.46;67.57;100058.09;5034128;28;20133;-47
2023/08/01 08:47:18;;;;;;;8.05;2.70;;;;;;;22.34;65.04;100047.84;5033845;28;20033;-43
2023/08/01 08:49:45;;;;;;;10.38;2.92;;;;;;;22.14;66.42;100046.16;5017384;28;20034;-46
2023/08/01 08:52:11;;;;;;;11.63;2.80;;;;;;;22.27;66.20;100060.56;5011127;28;20057;-43
2023/08/01 08:54:38;;;;;;;12.02;3.00;;;;;;;21.88;66.13;100059.75;5011023;28;20064;-44
2023/08/01 08:57:06;;;;;;;10.98;3.00;;;;;;;21.19;66.86;100057.50;5015175;28;20061;-46
2023/08/01 08:59:33;;;;;;;10.57;3.13;;;;;;;21.57;66.46;100071.75;5018587;28;20045;-44
2023/08/01 09:02:00;;;;;;;14.00;3.05;;;;;;;21.43;67.96;100061.72;5030998;28;20036;-44
2023/08/01 09:04:27;;;;;;;12.38;3.40;;;;;;;21.48;68.27;100069.47;5030464;28;20511;-44
2023/08/01 09:06:58;;;;;;;11.57;3.25;;;;;;;21.52;68.45;100059.63;5031410;28;20483;-44
2023/08/01 09:09:26;;;;;;;9.40;2.83;;;;;;;21.83;63.87;100055.50;5031045;28;20037;-47
2023/08/01 09:11:52;;;;;;;13.23;3.13;;;;;;;21.26;66.04;100069.56;5030406;28;20523;-42
2023/08/01 09:14:19;;;;;;;9.15;2.83;;;;;;;22.04;64.87;100064.31;5030718;28;20030;-49
2023/08/01 09:16:47;;;;;;;8.02;2.72;;;;;;;21.79;63.62;100072.50;5030051;28;20041;-46
2023/08/01 09:19:17;;;;;;;8.88;2.88;;;;;;;21.60;63.25;100068.94;5031060;28;20033;-46
2023/08/01 09:21:43;;;;;;;10.07;3.00;;;;;;;21.97;64.24;100070.81;5012105;28;20072;-45
2023/08/01 09:24:17;;;;;;;10.35;2.88;;;;;;;21.90;63.21;100074.66;5010853;28;20113;-43
2023/08/01 09:26:43;;;;;;;9.60;3.25;;;;;;;22.22;63.02;100082.03;5010286;28;20172;-45
2023/08/01 09:29:09;;;;;;;9.93;3.05;;;;;;;21.94;63.65;100076.25;5011131;28;20121;-43
2023/08/01 09:31:37;;;;;;;11.75;2.80;;;;;;;22.09;63.29;100083.53;5009820;28;20034;-46
2023/08/01 09:34:07;;;;;;;10.40;2.78;;;;;;;21.97;62.07;100085.88;5010470;28;20065;-43
2023/08/01 09:36:33;;;;;;;9.05;2.90;;;;;;;22.30;63.78;100081.66;5010524;28;20113;-47
2023/08/01 09:39:03;;;;;;;8.68;2.80;;;;;;;23.02;60.72;100085.22;5010737;28;20078;-45
2023/08/01 09:41:30;;;;;;;9.25;2.60;;;;;;;22.69;62.10;100091.34;5010475;28;20037;-45
2023/08/01 09:43:55;;;;;;;10.35;3.15;;;;;;;22.15;62.25;100100.97;5011687;28;20032;-47
2023/08/01 09:46:21;;;;;;;12.30;3.00;;;;;;;22.17;62.14;100092.00;5011816;28;20046;-43
2023/08/01 09:48:46;;;;;;;9.35;2.70;;;;;;;21.81;62.09;100104.28;5011379;28;20026;-44
2023/08/01 09:51:17;;;;;;;11.02;3.08;;;;;;;21.85;63.48;100108.50;5011435;28;20123;-45
2023/08/01 09:54:00;;;;;;;9.38;2.70;;;;;;;21.62;61.99;100104.22;5011009;28;20061;-43
2023/08/01 09:56:27;;;;;;;7.45;3.03;;;;;;;21.20;64.08;100093.69;5010580;28;20124;-44
2023/08/01 09:58:54;;;;;;;11.38;3.35;;;;;;;21.77;64.32;100100.03;5010791;28;20030;-45
2023/08/01 10:01:21;;;;;;;8.40;2.85;;;;;;;22.18;62.91;100103.50;5010293;28;20064;-43
2023/08/01 10:03:51;;;;;;;8.00;2.90;;;;;;;22.07;61.82;100104.00;5010262;28;20440;-46
2023/08/01 10:06:30;;;;;;;9.32;2.88;;;;;;;22.36;61.67;100110.59;5011206;28;20030;-46
2023/08/01 10:08:56;;;;;;;10.77;3.13;;;;;;;22.24;62.77;100108.50;5010634;28;20034;-43
2023/08/01 10:11:22;;;;;;;9.82;2.60;;;;;;;22.39;60.99;100107.78;5010097;28;20505;-42
2023/08/01 10:13:48;;;;;;;8.90;2.70;;;;;;;22.54;59.76;100107.06;5010369;28;20042;-43
2023/08/01 10:16:15;;;;;;;8.88;2.80;;;;;;;22.39;61.77;100114.88;5010085;28;20464;-44
2023/08/01 10:18:43;;;;;;;11.00;3.08;;;;;;;22.32;60.54;100121.44;5010112;28;20408;-44
2023/08/01 10:21:13;;;;;;;11.38;3.10;;;;;;;22.18;62.49;100109.66;5009889;28;20026;-44
2023/08/01 10:23:39;;;;;;;8.93;2.58;;;;;;;22.45;60.83;100115.44;5009313;28;20053;-43
2023/08/01 10:26:07;;;;;;;10.52;2.67;;;;;;;23.24;58.42;100110.72;5009754;28;20026;-44
2023/08/01 10:28:49;;;;;;;7.40;2.40;;;;;;;22.97;59.52;100105.88;5009609;28;20465;-47
2023/08/01 10:31:16;;;;;;;8.50;2.78;;;;;;;22.91;59.42;100119.47;5009141;28;20033;-45
2023/08/01 10:33:45;;;;;;;10.18;2.78;;;;;;;22.62;59.77;100114.69;5009282;28;20072;-43
2023/08/01 10:36:17;;;;;;;11.45;2.90;;;;;;;22.30;60.89;100125.94;5009770;28;20385;-44
2023/08/01 10:38:54;;;;;;;9.95;2.70;;;;;;;22.47;61.43;100126.88;5009268;28;20042;-43
2023/08/01 10:41:32;;;;;;;11.20;2.78;;;;;;;22.36;61.72;100130.97;5019619;28;20399;-47
2023/08/01 10:44:24;;;;;;;9.07;3.03;;;;;;;22.84;59.16;100122.47;5028980;28;20036;-49
2023/08/01 10:47:00;;;;;;;11.45;2.95;;;;;;;22.39;58.58;100139.66;5026744;28;20049;-43
2023/08/01 10:49:34;;;;;;;10.40;2.85;;;;;;;23.01;59.04;100125.16;5028733;28;20588;-45
2023/08/01 10:52:00;;;;;;;9.98;2.80;;;;;;;23.32;57.67;100130.69;5028562;28;20033;-45
2023/08/01 10:54:25;;;;;;;10.60;2.55;;;;;;;22.96;57.67;100128.06;5025578;28;20519;-45
2023/08/01 10:56:53;;;;;;;12.55;2.70;;;;;;;22.60;57.66;100129.81;5009921;28;20523;-47
2023/08/01 10:59:19;;;;;;;10.32;2.50;;;;;;;22.22;57.51;100139.56;5008855;28;20037;-43
2023/08/01 11:01:58;;;;;;;13.10;2.72;;;;;;;21.99;58.93;100145.06;5008545;28;20042;-44
2023/08/01 11:04:24;;;;;;;9.77;2.47;;;;;;;22.59;58.65;100141.38;5009744;28;20042;-44
2023/08/01 11:06:52;;;;;;;13.60;2.80;;;;;;;22.76;59.18;100144.09;5027586;28;20091;-45
2023/08/01 11:09:20;;;;;;;9.75;2.78;;;;;;;22.74;59.99;100145.13;5028811;28;20037;-44
2023/08/01 11:11:49;;;;;;;7.68;2.35;;;;;;;22.86;59.07;100153.38;5026356;28;20048;-44
2023/08/01 11:14:15;;;;;;;6.05;2.00;;;;;;;22.72;56.55;100146.97;5009454;28;20033;-44
2023/08/01 11:16:42;;;;;;;10.57;2.50;;;;;;;22.72;58.94;100160.25;5008800;28;20038;-42
2023/08/01 11:19:21;;;;;;;11.23;2.67;;;;;;;22.54;58.87;100160.19;5009205;28;20060;-43
2023/08/01 11:21:46;;;;;;;13.52;3.50;;;;;;;22.76;59.18;100167.16;5009138;28;20401;-43